sensor_id;sensor_type;location;lat;lon;timestamp;pressure;altitude;pressure_sealevel;temperature;humidity
5703;BME280;2876;51.738;10.050;2023-03-14T00:03:07;96892.47;;;11.64;90.47
5703;BME280;2876;51.738;10.050;2023-03-14T00:09:09;96911.28;;;11.75;89.52
5703;BME280;2876;51.738;10.050;2023-03-14T00:15:12;96867.22;;;11.55;90.10
5703;BME280;2876;51.738;10.050;2023-03-14T00:21:14;96849.00;;;11.67;88.82
5703;BME280;2876;51.738;10.050;2023-03-14T00:27:16;96890.59;;;11.55;88.72
5703;BME280;2876;51.738;10.050;2023-03-14T00:33:18;96899.16;;;11.47;88.06
5703;BME280;2876;51.738;10.050;2023-03-14T00:39:20;96949.34;;;11.51;87.77
5703;BME280;2876;51.738;10.050;2023-03-14T00:45:22;96961.09;;;11.35;88.08
5703;BME280;2876;51.738;10.050;2023-03-14T00:51:24;96964.06;;;11.38;87.48
5703;BME280;2876;51.738;10.050;2023-03-14T00:57:26;96966.25;;;11.52;86.54
5703;BME280;2876;51.738;10.050;2023-03-14T01:03:28;96954.19;;;11.49;86.17
5703;BME280;2876;51.738;10.050;2023-03-14T01:09:30;96943.97;;;11.51;85.39
5703;BME280;2876;51.738;10.050;2023-03-14T01:15:34;96941.84;;;11.53;85.46
5703;BME280;2876;51.738;10.050;2023-03-14T01:21:36;96957.69;;;11.60;85.22
5703;BME280;2876;51.738;10.050;2023-03-14T01:27:38;96916.34;;;11.51;84.83
5703;BME280;2876;51.738;10.050;2023-03-14T01:33:40;96886.81;;;11.51;84.75
5703;BME280;2876;51.738;10.050;2023-03-14T01:39:42;96912.06;;;11.55;83.99
5703;BME280;2876;51.738;10.050;2023-03-14T01:58:15;96886.22;;;11.28;84.83
5703;BME280;2876;51.738;10.050;2023-03-14T02:04:19;96870.94;;;11.34;84.56
5703;BME280;2876;51.738;10.050;2023-03-14T02:10:35;96867.97;;;11.25;85.33
5703;BME280;2876;51.738;10.050;2023-03-14T02:16:39;96867.16;;;11.30;84.70
5703;BME280;2876;51.738;10.050;2023-03-14T02:22:42;96874.13;;;11.21;84.34
5703;BME280;2876;51.738;10.050;2023-03-14T02:28:46;96865.75;;;11.07;84.63
5703;BME280;2876;51.738;10.050;2023-03-14T02:34:52;96869.31;;;11.23;83.96
5703;BME280;2876;51.738;10.050;2023-03-14T02:40:56;96858.53;;;11.12;84.68
5703;BME280;2876;51.738;10.050;2023-03-14T02:46:58;96830.34;;;11.00;85.30
5703;BME280;2876;51.738;10.050;2023-03-14T02:53:00;96815.59;;;11.07;85.15
5703;BME280;2876;51.738;10.050;2023-03-14T02:59:04;96812.91;;;10.97;85.51
5703;BME280;2876;51.738;10.050;2023-03-14T03:05:06;96803.50;;;10.89;86.10
5703;BME280;2876;51.738;10.050;2023-03-14T03:11:09;96809.19;;;11.08;85.76
5703;BME280;2876;51.738;10.050;2023-03-14T03:17:11;96793.91;;;11.09;85.92
5703;BME280;2876;51.738;10.050;2023-03-14T03:23:13;96787.44;;;11.05;86.24
5703;BME280;2876;51.738;10.050;2023-03-14T03:29:15;96778.03;;;10.97;86.66
5703;BME280;2876;51.738;10.050;2023-03-14T03:35:17;96768.69;;;11.10;86.08
5703;BME280;2876;51.738;10.050;2023-03-14T03:41:19;96758.47;;;10.91;86.59
5703;BME280;2876;51.738;10.050;2023-03-14T03:47:21;96753.88;;;10.87;86.90
5703;BME280;2876;51.738;10.050;2023-03-14T03:53:24;96773.19;;;10.84;86.72
5703;BME280;2876;51.738;10.050;2023-03-14T03:59:34;96797.31;;;10.84;86.62
5703;BME280;2876;51.738;10.050;2023-03-14T04:05:36;96798.69;;;10.91;86.48
5703;BME280;2876;51.738;10.050;2023-03-14T04:11:38;96795.66;;;10.68;88.16
5703;BME280;2876;51.738;10.050;2023-03-14T04:17:40;96788.97;;;10.75;88.61
5703;BME280;2876;51.738;10.050;2023-03-14T04:23:42;96796.25;;;10.85;88.86
5703;BME280;2876;51.738;10.050;2023-03-14T04:29:44;96768.91;;;11.03;87.71
5703;BME280;2876;51.738;10.050;2023-03-14T04:35:47;96765.44;;;11.03;86.70
5703;BME280;2876;51.738;10.050;2023-03-14T04:41:49;96760.91;;;11.13;86.17
5703;BME280;2876;51.738;10.050;2023-03-14T04:47:51;96763.59;;;11.08;85.75
5703;BME280;2876;51.738;10.050;2023-03-14T04:53:54;96741.56;;;11.06;86.11
5703;BME280;2876;51.738;10.050;2023-03-14T04:59:56;96740.22;;;10.93;85.99
5703;BME280;2876;51.738;10.050;2023-03-14T05:06:01;96743.47;;;11.01;86.63
5703;BME280;2876;51.738;10.050;2023-03-14T05:12:03;96744.53;;;11.10;86.94
5703;BME280;2876;51.738;10.050;2023-03-14T05:18:06;96758.47;;;11.07;88.31
5703;BME280;2876;51.738;10.050;2023-03-14T05:24:08;96779.03;;;10.60;94.59
5703;BME280;2876;51.738;10.050;2023-03-14T05:30:10;96782.75;;;9.64;97.53
5703;BME280;2876;51.738;10.050;2023-03-14T05:36:13;96802.06;;;9.07;100.00
5703;BME280;2876;51.738;10.050;2023-03-14T05:42:14;96776.19;;;8.86;100.00
5703;BME280;2876;51.738;10.050;2023-03-14T05:48:16;96777.28;;;8.63;100.00
5703;BME280;2876;51.738;10.050;2023-03-14T05:54:18;96759.72;;;8.45;100.00
5703;BME280;2876;51.738;10.050;2023-03-14T06:00:21;96759.97;;;8.44;100.00
5703;BME280;2876;51.738;10.050;2023-03-14T06:06:23;96766.47;;;8.53;100.00
5703;BME280;2876;51.738;10.050;2023-03-14T06:12:25;96755.41;;;8.66;100.00
5703;BME280;2876;51.738;10.050;2023-03-14T06:18:28;96762.25;;;8.84;100.00
5703;BME280;2876;51.738;10.050;2023-03-14T06:24:29;96764.75;;;9.18;100.00
5703;BME280;2876;51.738;10.050;2023-03-14T06:30:31;96762.84;;;9.50;100.00
5703;BME280;2876;51.738;10.050;2023-03-14T06:36:33;96756.31;;;9.68;100.00
5703;BME280;2876;51.738;10.050;2023-03-14T06:42:35;96747.03;;;9.86;100.00
5703;BME280;2876;51.738;10.050;2023-03-14T06:48:37;96745.22;;;9.97;98.11
5703;BME280;2876;51.738;10.050;2023-03-14T06:54:39;96747.44;;;10.10;97.38
5703;BME280;2876;51.738;10.050;2023-03-14T07:00:41;96749.97;;;10.27;95.54
5703;BME280;2876;51.738;10.050;2023-03-14T07:06:43;96747.34;;;10.47;92.85
5703;BME280;2876;51.738;10.050;2023-03-14T07:12:49;96743.38;;;10.70;90.50
5703;BME280;2876;51.738;10.050;2023-03-14T07:18:51;96747.44;;;10.73;90.36
5703;BME280;2876;51.738;10.050;2023-03-14T07:24:53;96749.06;;;10.84;90.00
5703;BME280;2876;51.738;10.050;2023-03-14T07:30:56;96738.38;;;11.20;87.91
5703;BME280;2876;51.738;10.050;2023-03-14T07:36:58;96732.19;;;11.60;86.65
5703;BME280;2876;51.738;10.050;2023-03-14T07:42:59;96741.56;;;11.62;84.59
5703;BME280;2876;51.738;10.050;2023-03-14T07:49:01;96734.56;;;11.82;83.38
5703;BME280;2876;51.738;10.050;2023-03-14T07:55:04;96733.50;;;11.78;84.99
5703;BME280;2876;51.738;10.050;2023-03-14T08:01:07;96729.75;;;11.68;83.78
5703;BME280;2876;51.738;10.050;2023-03-14T08:07:09;96727.00;;;12.14;82.37
5703;BME280;2876;51.738;10.050;2023-03-14T08:13:11;96719.72;;;12.20;81.58
5703;BME280;2876;51.738;10.050;2023-03-14T08:19:13;96717.84;;;12.70;80.00
5703;BME280;2876;51.738;10.050;2023-03-14T08:25:16;96708.56;;;13.89;76.04
5703;BME280;2876;51.738;10.050;2023-03-14T08:31:18;96728.31;;;15.32;70.77
5703;BME280;2876;51.738;10.050;2023-03-14T08:37:20;96715.47;;;14.67;69.27
5703;BME280;2876;51.738;10.050;2023-03-14T08:43:28;96731.34;;;14.02;72.56
5703;BME280;2876;51.738;10.050;2023-03-14T08:49:30;96725.50;;;13.65;74.94
5703;BME280;2876;51.738;10.050;2023-03-14T08:55:32;96740.06;;;12.91;77.92
5703;BME280;2876;51.738;10.050;2023-03-14T09:01:34;96722.78;;;12.53;79.70
5703;BME280;2876;51.738;10.050;2023-03-14T09:07:37;96733.66;;;12.82;78.67
5703;BME280;2876;51.738;10.050;2023-03-14T09:13:39;96746.72;;;13.04;77.86
5703;BME280;2876;51.738;10.050;2023-03-14T09:19:42;96749.28;;;13.24;77.65
5703;BME280;2876;51.738;10.050;2023-03-14T09:25:44;96746.94;;;13.07;78.67
5703;BME280;2876;51.738;10.050;2023-03-14T09:31:46;96750.88;;;12.86;80.18
5703;BME280;2876;51.738;10.050;2023-03-14T09:37:48;96738.88;;;12.58;79.23
5703;BME280;2876;51.738;10.050;2023-03-14T09:50:03;96760.16;;;12.59;79.75
5703;BME280;2876;51.738;10.050;2023-03-14T09:56:21;96747.28;;;12.46;79.86
5703;BME280;2876;51.738;10.050;2023-03-14T10:02:32;96760.09;;;12.69;79.97
5703;BME280;2876;51.738;10.050;2023-03-14T10:08:35;96743.25;;;12.43;80.89
5703;BME280;2876;51.738;10.050;2023-03-14T10:14:51;96751.91;;;12.40;81.71
5703;BME280;2876;51.738;10.050;2023-03-14T10:27:22;96736.47;;;11.86;86.32
5703;BME280;2876;51.738;10.050;2023-03-14T10:33:29;96749.78;;;12.27;85.01
5703;BME280;2876;51.738;10.050;2023-03-14T10:39:41;96755.72;;;12.19;86.72
5703;BME280;2876;51.738;10.050;2023-03-14T10:46:05;96754.31;;;12.37;86.45
5703;BME280;2876;51.738;10.050;2023-03-14T10:52:27;96756.72;;;12.38;84.80
5703;BME280;2876;51.738;10.050;2023-03-14T10:58:54;96748.16;;;12.31;85.88
5703;BME280;2876;51.738;10.050;2023-03-14T11:05:09;96749.66;;;12.53;84.25
5703;BME280;2876;51.738;10.050;2023-03-14T11:11:24;96764.16;;;12.62;86.22
5703;BME280;2876;51.738;10.050;2023-03-14T11:17:46;96774.28;;;12.80;86.77
5703;BME280;2876;51.738;10.050;2023-03-14T11:30:53;96758.19;;;13.19;86.13
5703;BME280;2876;51.738;10.050;2023-03-14T11:37:21;96758.22;;;13.14;87.89
5703;BME280;2876;51.738;10.050;2023-03-14T11:43:34;96755.09;;;13.41;85.64
5703;BME280;2876;51.738;10.050;2023-03-14T11:49:58;96743.63;;;13.26;84.43
5703;BME280;2876;51.738;10.050;2023-03-14T11:56:02;96741.94;;;12.95;88.08
5703;BME280;2876;51.738;10.050;2023-03-14T12:02:25;96726.97;;;12.74;89.20
5703;BME280;2876;51.738;10.050;2023-03-14T12:08:53;96741.75;;;12.82;89.63
5703;BME280;2876;51.738;10.050;2023-03-14T12:15:02;96751.66;;;12.22;91.01
5703;BME280;2876;51.738;10.050;2023-03-14T12:21:07;96762.25;;;11.82;95.08
5703;BME280;2876;51.738;10.050;2023-03-14T12:27:13;96817.03;;;11.51;98.48
5703;BME280;2876;51.738;10.050;2023-03-14T12:33:34;96865.88;;;9.85;99.70
5703;BME280;2876;51.738;10.050;2023-03-14T12:52:56;96968.22;;;7.76;100.00
5703;BME280;2876;51.738;10.050;2023-03-14T13:05:21;97033.31;;;7.47;100.00
5703;BME280;2876;51.738;10.050;2023-03-14T13:11:26;97081.00;;;7.20;98.98
5703;BME280;2876;51.738;10.050;2023-03-14T13:17:33;97132.44;;;6.85;97.28
5703;BME280;2876;51.738;10.050;2023-03-14T13:23:38;97173.72;;;6.52;96.27
5703;BME280;2876;51.738;10.050;2023-03-14T13:29:41;97198.38;;;5.63;96.79
5703;BME280;2876;51.738;10.050;2023-03-14T13:41:51;97252.84;;;5.10;95.73
5703;BME280;2876;51.738;10.050;2023-03-14T13:47:53;97270.56;;;5.16;96.60
5703;BME280;2876;51.738;10.050;2023-03-14T13:53:55;97295.09;;;5.18;95.92
5703;BME280;2876;51.738;10.050;2023-03-14T14:06:02;97378.25;;;4.80;94.14
5703;BME280;2876;51.738;10.050;2023-03-14T14:12:13;97401.97;;;4.75;93.00
5703;BME280;2876;51.738;10.050;2023-03-14T14:18:21;97411.59;;;4.70;93.48
5703;BME280;2876;51.738;10.050;2023-03-14T14:24:31;97432.63;;;4.71;92.45
5703;BME280;2876;51.738;10.050;2023-03-14T14:30:33;97447.69;;;4.91;92.55
5703;BME280;2876;51.738;10.050;2023-03-14T14:36:39;97465.56;;;5.15;91.60
5703;BME280;2876;51.738;10.050;2023-03-14T14:42:42;97477.91;;;5.41;90.52
5703;BME280;2876;51.738;10.050;2023-03-14T14:48:45;97505.38;;;5.28;89.87
5703;BME280;2876;51.738;10.050;2023-03-14T14:54:52;97521.81;;;5.50;90.89
5703;BME280;2876;51.738;10.050;2023-03-14T15:01:15;97542.25;;;5.56;88.36
5703;BME280;2876;51.738;10.050;2023-03-14T15:07:18;97546.28;;;5.66;87.67
5703;BME280;2876;51.738;10.050;2023-03-14T15:13:20;97575.75;;;5.64;87.29
5703;BME280;2876;51.738;10.050;2023-03-14T15:19:25;97590.38;;;5.42;85.75
5703;BME280;2876;51.738;10.050;2023-03-14T15:25:27;97615.81;;;4.98;88.16
5703;BME280;2876;51.738;10.050;2023-03-14T15:31:49;97635.22;;;4.85;89.42
5703;BME280;2876;51.738;10.050;2023-03-14T15:37:51;97644.63;;;4.68;87.98
5703;BME280;2876;51.738;10.050;2023-03-14T15:43:53;97660.53;;;4.68;87.66
5703;BME280;2876;51.738;10.050;2023-03-14T15:49:56;97689.56;;;4.76;86.12
5703;BME280;2876;51.738;10.050;2023-03-14T15:55:58;97714.75;;;6.81;79.62
5703;BME280;2876;51.738;10.050;2023-03-14T16:02:00;97716.97;;;7.16;76.33
5703;BME280;2876;51.738;10.050;2023-03-14T16:08:02;97724.00;;;6.47;79.98
5703;BME280;2876;51.738;10.050;2023-03-14T16:14:05;97747.72;;;7.18;75.24
5703;BME280;2876;51.738;10.050;2023-03-14T16:20:07;97763.00;;;7.29;74.05
5703;BME280;2876;51.738;10.050;2023-03-14T16:26:14;97772.16;;;6.83;76.36
5703;BME280;2876;51.738;10.050;2023-03-14T16:32:16;97793.31;;;6.20;78.49
5703;BME280;2876;51.738;10.050;2023-03-14T16:38:19;97806.50;;;5.62;76.90
5703;BME280;2876;51.738;10.050;2023-03-14T16:44:21;97826.34;;;5.59;76.76
5703;BME280;2876;51.738;10.050;2023-03-14T16:50:23;97850.81;;;6.41;72.08
5703;BME280;2876;51.738;10.050;2023-03-14T16:56:25;97869.50;;;6.08;73.86
5703;BME280;2876;51.738;10.050;2023-03-14T17:02:27;97886.91;;;5.77;75.46
5703;BME280;2876;51.738;10.050;2023-03-14T17:08:30;97901.03;;;5.65;74.90
5703;BME280;2876;51.738;10.050;2023-03-14T17:14:32;97926.94;;;5.29;76.07
5703;BME280;2876;51.738;10.050;2023-03-14T17:20:34;97929.97;;;5.20;74.54
5703;BME280;2876;51.738;10.050;2023-03-14T17:26:36;97947.38;;;5.22;74.98
5703;BME280;2876;51.738;10.050;2023-03-14T17:32:37;97964.72;;;5.18;74.37
5703;BME280;2876;51.738;10.050;2023-03-14T17:38:40;97987.50;;;4.99;74.27
5703;BME280;2876;51.738;10.050;2023-03-14T17:44:42;98014.53;;;5.03;70.66
5703;BME280;2876;51.738;10.050;2023-03-14T17:50:45;98040.47;;;5.01;69.84
5703;BME280;2876;51.738;10.050;2023-03-14T17:56:47;98060.84;;;4.87;70.74
5703;BME280;2876;51.738;10.050;2023-03-14T18:02:50;98071.34;;;5.02;72.18
5703;BME280;2876;51.738;10.050;2023-03-14T18:08:52;98090.59;;;5.11;69.67
5703;BME280;2876;51.738;10.050;2023-03-14T18:14:55;98118.53;;;5.00;69.78
5703;BME280;2876;51.738;10.050;2023-03-14T18:20:57;98128.53;;;4.98;69.09
5703;BME280;2876;51.738;10.050;2023-03-14T18:27:00;98133.00;;;4.91;68.57
5703;BME280;2876;51.738;10.050;2023-03-14T18:33:02;98152.75;;;4.81;68.96
5703;BME280;2876;51.738;10.050;2023-03-14T18:39:05;98163.59;;;4.87;67.20
5703;BME280;2876;51.738;10.050;2023-03-14T18:45:08;98178.19;;;4.97;67.28
5703;BME280;2876;51.738;10.050;2023-03-14T18:51:13;98184.63;;;4.81;67.48
5703;BME280;2876;51.738;10.050;2023-03-14T18:57:16;98196.75;;;4.69;67.24
5703;BME280;2876;51.738;10.050;2023-03-14T19:03:17;98213.88;;;4.45;66.09
5703;BME280;2876;51.738;10.050;2023-03-14T19:09:19;98237.88;;;4.37;66.93
5703;BME280;2876;51.738;10.050;2023-03-14T19:15:22;98251.00;;;4.24;67.16
5703;BME280;2876;51.738;10.050;2023-03-14T19:21:33;98255.31;;;4.10;67.16
5703;BME280;2876;51.738;10.050;2023-03-14T19:27:35;98273.34;;;4.15;66.97
5703;BME280;2876;51.738;10.050;2023-03-14T19:33:39;98279.00;;;3.97;68.19
5703;BME280;2876;51.738;10.050;2023-03-14T19:39:41;98294.53;;;3.70;69.65
5703;BME280;2876;51.738;10.050;2023-03-14T19:45:46;98308.34;;;3.80;68.93
5703;BME280;2876;51.738;10.050;2023-03-14T19:51:48;98307.19;;;3.68;69.46
5703;BME280;2876;51.738;10.050;2023-03-14T19:57:51;98323.69;;;3.55;70.20
5703;BME280;2876;51.738;10.050;2023-03-14T20:03:53;98329.00;;;3.70;69.04
5703;BME280;2876;51.738;10.050;2023-03-14T20:09:56;98345.94;;;3.84;68.22
5703;BME280;2876;51.738;10.050;2023-03-14T20:15:58;98353.88;;;3.69;68.64
5703;BME280;2876;51.738;10.050;2023-03-14T20:22:00;98352.41;;;3.67;68.93
5703;BME280;2876;51.738;10.050;2023-03-14T20:28:04;98367.81;;;3.48;70.03
5703;BME280;2876;51.738;10.050;2023-03-14T20:34:07;98369.69;;;3.40;70.70
5703;BME280;2876;51.738;10.050;2023-03-14T20:40:10;98388.00;;;3.26;72.12
5703;BME280;2876;51.738;10.050;2023-03-14T20:46:12;98389.00;;;3.02;73.28
5703;BME280;2876;51.738;10.050;2023-03-14T20:52:17;98400.19;;;3.13;72.98
5703;BME280;2876;51.738;10.050;2023-03-14T20:58:19;98422.72;;;3.09;73.20
5703;BME280;2876;51.738;10.050;2023-03-14T21:04:22;98425.97;;;2.96;73.97
5703;BME280;2876;51.738;10.050;2023-03-14T21:10:26;98430.09;;;2.90;73.97
5703;BME280;2876;51.738;10.050;2023-03-14T21:16:28;98441.06;;;2.87;73.55
5703;BME280;2876;51.738;10.050;2023-03-14T21:22:29;98438.44;;;3.18;71.51
5703;BME280;2876;51.738;10.050;2023-03-14T21:28:32;98455.13;;;3.19;71.38
5703;BME280;2876;51.738;10.050;2023-03-14T21:34:34;98468.53;;;3.17;70.85
5703;BME280;2876;51.738;10.050;2023-03-14T21:40:36;98476.56;;;3.09;71.34
5703;BME280;2876;51.738;10.050;2023-03-14T21:46:38;98480.16;;;3.16;70.01
5703;BME280;2876;51.738;10.050;2023-03-14T21:52:42;98478.63;;;3.22;70.01
5703;BME280;2876;51.738;10.050;2023-03-14T21:58:46;98494.72;;;3.12;70.27
5703;BME280;2876;51.738;10.050;2023-03-14T22:04:48;98499.97;;;3.28;69.54
5703;BME280;2876;51.738;10.050;2023-03-14T22:10:52;98514.38;;;3.26;69.21
5703;BME280;2876;51.738;10.050;2023-03-14T22:16:55;98513.28;;;3.12;69.90
5703;BME280;2876;51.738;10.050;2023-03-14T22:23:00;98517.56;;;3.13;70.08
5703;BME280;2876;51.738;10.050;2023-03-14T22:29:02;98528.84;;;3.07;70.47
5703;BME280;2876;51.738;10.050;2023-03-14T22:35:05;98530.47;;;3.16;70.50
5703;BME280;2876;51.738;10.050;2023-03-14T22:41:07;98538.66;;;2.98;71.61
5703;BME280;2876;51.738;10.050;2023-03-14T22:47:09;98543.66;;;2.85;72.28
5703;BME280;2876;51.738;10.050;2023-03-14T22:53:11;98551.78;;;2.84;72.94
5703;BME280;2876;51.738;10.050;2023-03-14T22:59:13;98555.63;;;2.73;73.53
5703;BME280;2876;51.738;10.050;2023-03-14T23:05:16;98556.47;;;2.57;75.06
5703;BME280;2876;51.738;10.050;2023-03-14T23:11:17;98557.28;;;2.74;74.68
5703;BME280;2876;51.738;10.050;2023-03-14T23:17:19;98574.25;;;2.96;73.62
5703;BME280;2876;51.738;10.050;2023-03-14T23:23:21;98570.09;;;3.10;72.70
5703;BME280;2876;51.738;10.050;2023-03-14T23:29:26;98585.97;;;3.10;71.89
5703;BME280;2876;51.738;10.050;2023-03-14T23:35:28;98580.19;;;3.06;72.01
5703;BME280;2876;51.738;10.050;2023-03-14T23:41:30;98590.97;;;3.04;72.64
5703;BME280;2876;51.738;10.050;2023-03-14T23:47:32;98586.81;;;3.10;72.33
5703;BME280;2876;51.738;10.050;2023-03-14T23:53:34;98591.78;;;3.05;72.58
5703;BME280;2876;51.738;10.050;2023-03-14T23:59:37;98600.75;;;2.88;73.14
